Time;durP1;ratioP1;P1;durP2;ratioP2;P2;SDS_P1;SDS_P2;PMS_P1;PMS_P2;Temp;Humidity;BMP_temperature;BMP_pressure;BME280_temperature;BME280_humidity;BME280_pressure;Samples;Min_cycle;Max_cycle;Signal;HPM_P1;HPM_P2
2022/04/05 00:00:11;;;;;;;6.13;3.13;;;;;;;;;;5081672;28;20048;-45
2022/04/05 00:02:37;;;;;;;3.40;1.58;;;;;;;;;;5083060;28;20039;-42
2022/04/05 00:05:02;;;;;;;4.72;2.17;;;;;;;;;;5083336;28;20036;-45
2022/04/05 00:07:28;;;;;;;3.78;2.88;;;;;;;;;;5079939;28;20044;-46
2022/04/05 00:09:54;;;;;;;4.28;2.80;;;;;;;;;;5084822;28;20423;-44
2022/04/05 00:12:20;;;;;;;4.97;3.00;;;;;;;;;;5081381;28;20082;-45
2022/04/05 00:14:46;;;;;;;10.27;3.42;;;;;;;;;;5082847;28;20066;-43
2022/04/05 00:17:11;;;;;;;6.82;4.82;;;;;;;;;;5084423;28;20114;-42
2022/04/05 00:19:36;;;;;;;16.25;10.35;;;;;;;;;;5084845;28;20044;-41
2022/04/05 00:22:03;;;;;;;11.85;8.45;;;;;;;;;;5083384;28;20047;-47
2022/04/05 00:24:28;;;;;;;13.93;10.30;;;;;;;;;;5082694;28;20101;-42
2022/04/05 00:26:55;;;;;;;10.30;7.05;;;;;;;;;;5083810;28;20051;-43
2022/04/05 00:29:22;;;;;;;15.23;4.80;;;;;;;;;;5079595;28;20569;-41
2022/04/05 00:31:47;;;;;;;5.40;3.53;;;;;;;;;;5081717;28;20044;-41
2022/04/05 00:34:13;;;;;;;6.35;3.03;;;;;;;;;;5081623;28;20127;-44
2022/04/05 00:36:38;;;;;;;4.05;1.95;;;;;;;;;;5081285;28;20609;-44
2022/04/05 00:39:04;;;;;;;6.38;2.22;;;;;;;;;;5084463;28;20561;-43
2022/04/05 00:41:29;;;;;;;4.07;2.30;;;;;;;;;;5083757;28;20357;-44
2022/04/05 00:43:54;;;;;;;5.18;2.88;;;;;;;;;;5081865;28;20163;-44
2022/04/05 00:46:20;;;;;;;2.83;1.90;;;;;;;;;;5083793;28;20491;-43
2022/04/05 00:48:45;;;;;;;10.02;1.88;;;;;;;;;;5081111;28;20056;-47
2022/04/05 00:51:10;;;;;;;4.28;1.92;;;;;;;;;;5078507;28;20059;-43
2022/04/05 00:53:36;;;;;;;2.33;1.73;;;;;;;;;;5081878;28;20040;-44
2022/04/05 00:56:03;;;;;;;2.90;2.00;;;;;;;;;;5081085;28;20040;-42
2022/04/05 00:58:29;;;;;;;7.60;2.75;;;;;;;;;;5080533;28;20113;-41
2022/04/05 01:00:57;;;;;;;3.25;2.58;;;;;;;;;;5083441;28;20402;-42
2022/04/05 01:03:22;;;;;;;3.05;2.05;;;;;;;;;;5083056;28;20044;-42
2022/04/05 01:05:48;;;;;;;6.78;2.53;;;;;;;;;;5080419;28;20431;-42
2022/04/05 01:08:17;;;;;;;4.15;2.15;;;;;;;;;;5078853;28;20488;-47
2022/04/05 01:10:43;;;;;;;4.22;2.38;;;;;;;;;;5080566;28;20098;-43
2022/04/05 01:13:08;;;;;;;7.63;2.47;;;;;;;;;;5083828;28;20556;-46
2022/04/05 01:15:34;;;;;;;2.97;1.65;;;;;;;;;;5083743;28;20055;-45
2022/04/05 01:18:00;;;;;;;4.47;2.80;;;;;;;;;;5085306;28;20043;-44
2022/04/05 01:20:25;;;;;;;6.47;2.63;;;;;;;;;;5083906;28;20133;-42
2022/04/05 01:22:53;;;;;;;2.28;1.63;;;;;;;;;;5083154;28;20050;-41
2022/04/05 01:25:19;;;;;;;4.00;2.88;;;;;;;;;;5083706;28;20037;-44
2022/04/05 01:27:45;;;;;;;4.22;2.55;;;;;;;;;;5084132;28;20047;-42
2022/04/05 01:30:10;;;;;;;11.15;2.83;;;;;;;;;;5085922;28;20044;-43
2022/04/05 01:32:36;;;;;;;9.48;1.98;;;;;;;;;;5088032;28;20094;-43
2022/04/05 01:35:02;;;;;;;2.78;1.48;;;;;;;;;;5086422;28;20055;-44
2022/04/05 01:37:28;;;;;;;10.05;3.05;;;;;;;;;;5084076;28;20056;-46
2022/04/05 01:39:53;;;;;;;6.45;2.08;;;;;;;;;;5085620;28;20642;-42
2022/04/05 01:42:18;;;;;;;5.78;2.58;;;;;;;;;;5088238;28;20040;-42
2022/04/05 01:44:44;;;;;;;5.72;2.95;;;;;;;;;;5085339;28;20066;-45
2022/04/05 01:47:11;;;;;;;4.78;2.83;;;;;;;;;;5083983;28;20047;-45
2022/04/05 01:49:37;;;;;;;3.28;1.83;;;;;;;;;;5085636;28;20690;-43
2022/04/05 01:52:02;;;;;;;2.13;1.27;;;;;;;;;;5081689;28;20059;-45
2022/04/05 01:54:27;;;;;;;3.97;2.58;;;;;;;;;;5086275;28;20529;-46
2022/04/05 01:56:53;;;;;;;4.15;1.40;;;;;;;;;;5082149;28;20079;-43
2022/04/05 01:59:19;;;;;;;3.38;2.30;;;;;;;;;;5084539;28;20032;-43
2022/04/05 02:01:45;;;;;;;13.00;2.50;;;;;;;;;;5086914;28;20048;-42
2022/04/05 02:04:10;;;;;;;4.72;1.83;;;;;;;;;;5084098;28;20092;-43
2022/04/05 02:06:36;;;;;;;5.43;1.58;;;;;;;;;;5084417;28;20601;-41
2022/04/05 02:09:02;;;;;;;1.65;1.55;;;;;;;;;;5081923;28;20056;-46
2022/04/05 02:11:27;;;;;;;2.45;1.35;;;;;;;;;;5084091;28;20063;-42
2022/04/05 02:13:52;;;;;;;3.08;1.50;;;;;;;;;;5081016;28;20109;-43
2022/04/05 02:16:18;;;;;;;6.70;2.63;;;;;;;;;;5087513;28;20048;-40
2022/04/05 02:18:43;;;;;;;6.55;2.50;;;;;;;;;;5082935;28;20530;-42
2022/04/05 02:21:08;;;;;;;4.40;2.55;;;;;;;;;;5085195;28;20457;-42
2022/04/05 02:23:34;;;;;;;5.40;1.95;;;;;;;;;;5086274;28;20449;-41
2022/04/05 02:25:59;;;;;;;6.25;2.10;;;;;;;;;;5082720;28;20056;-43
2022/04/05 02:28:25;;;;;;;4.47;2.40;;;;;;;;;;5081687;28;20572;-47
2022/04/05 02:30:51;;;;;;;4.07;1.92;;;;;;;;;;5085792;28;20070;-42
2022/04/05 02:33:16;;;;;;;6.03;2.42;;;;;;;;;;5085539;28;20182;-42
2022/04/05 02:35:43;;;;;;;5.78;3.17;;;;;;;;;;5083370;28;20636;-40
2022/04/05 02:38:08;;;;;;;9.30;2.55;;;;;;;;;;5084053;28;20032;-41
2022/04/05 02:40:34;;;;;;;4.10;2.40;;;;;;;;;;5084941;28;20185;-46
2022/04/05 02:42:59;;;;;;;15.15;2.83;;;;;;;;;;5082291;28;20782;-45
2022/04/05 02:45:24;;;;;;;4.95;2.67;;;;;;;;;;5083305;28;20714;-44
2022/04/05 02:47:50;;;;;;;9.75;1.58;;;;;;;;;;5085306;28;20047;-42
2022/04/05 02:50:17;;;;;;;6.05;2.88;;;;;;;;;;5083330;28;20055;-43
2022/04/05 02:52:46;;;;;;;2.05;1.30;;;;;;;;;;5079926;28;20041;-45
2022/04/05 02:55:12;;;;;;;1.73;1.50;;;;;;;;;;5084020;28;20044;-42
2022/04/05 02:57:38;;;;;;;5.05;2.20;;;;;;;;;;5082900;28;20400;-43
2022/04/05 03:00:07;;;;;;;3.67;2.25;;;;;;;;;;5084253;28;20420;-42
2022/04/05 03:02:34;;;;;;;1.90;1.52;;;;;;;;;;5084714;28;20059;-41
2022/04/05 03:04:59;;;;;;;6.07;2.65;;;;;;;;;;5080557;28;20697;-43
2022/04/05 03:07:25;;;;;;;3.05;1.17;;;;;;;;;;5084213;28;20048;-43
2022/04/05 03:09:50;;;;;;;3.15;1.75;;;;;;;;;;5085108;28;20253;-44
2022/04/05 03:12:16;;;;;;;5.25;2.55;;;;;;;;;;5085963;28;20052;-43
2022/04/05 03:14:41;;;;;;;8.55;2.20;;;;;;;;;;5084935;28;20105;-44
2022/04/05 03:17:06;;;;;;;5.60;2.42;;;;;;;;;;5085738;28;20067;-49
2022/04/05 03:19:32;;;;;;;5.18;2.13;;;;;;;;;;5084779;28;20036;-42
2022/04/05 03:21:57;;;;;;;3.53;1.80;;;;;;;;;;5084038;28;20040;-44
2022/04/05 03:24:22;;;;;;;6.32;1.70;;;;;;;;;;5082091;28;20048;-43
2022/04/05 03:26:47;;;;;;;4.63;2.38;;;;;;;;;;5081347;28;20036;-43
2022/04/05 03:29:13;;;;;;;2.97;1.63;;;;;;;;;;5085919;28;20855;-45
2022/04/05 03:31:38;;;;;;;8.73;2.22;;;;;;;;;;5083771;28;20154;-42
2022/04/05 03:34:03;;;;;;;12.25;2.28;;;;;;;;;;5084695;28;20042;-43
2022/04/05 03:36:29;;;;;;;5.45;1.80;;;;;;;;;;5083345;28;20051;-42
2022/04/05 03:38:54;;;;;;;14.38;2.97;;;;;;;;;;5082441;28;21003;-44
2022/04/05 03:41:19;;;;;;;2.65;1.88;;;;;;;;;;5083559;28;20038;-44
2022/04/05 03:43:45;;;;;;;12.68;2.53;;;;;;;;;;5074909;28;20449;-41
2022/04/05 03:46:10;;;;;;;3.40;1.67;;;;;;;;;;5081572;28;20078;-47
2022/04/05 03:48:35;;;;;;;8.57;2.63;;;;;;;;;;5080541;28;20613;-44
2022/04/05 03:51:08;;;;;;;8.82;2.63;;;;;;;;;;5081563;28;20032;-44
2022/04/05 03:53:33;;;;;;;1.92;1.50;;;;;;;;;;5081950;28;20040;-41
2022/04/05 03:55:58;;;;;;;2.50;1.23;;;;;;;;;;5084212;28;20032;-42
2022/04/05 03:58:24;;;;;;;2.08;1.20;;;;;;;;;;5084008;28;20552;-42
2022/04/05 04:00:49;;;;;;;4.97;3.15;;;;;;;;;;5081485;28;20048;-43
2022/04/05 04:03:15;;;;;;;4.68;3.10;;;;;;;;;;5081031;28;20040;-44
2022/04/05 04:05:40;;;;;;;5.72;3.30;;;;;;;;;;5082854;28;20072;-43
2022/04/05 04:08:05;;;;;;;4.70;3.20;;;;;;;;;;5082710;28;20395;-42
2022/04/05 04:10:31;;;;;;;4.35;1.67;;;;;;;;;;5085574;28;20036;-43
2022/04/05 04:12:56;;;;;;;4.20;1.05;;;;;;;;;;5084369;28;20070;-41
2022/04/05 04:15:21;;;;;;;3.40;1.92;;;;;;;;;;5081658;28;20507;-42
2022/04/05 04:17:47;;;;;;;5.78;3.25;;;;;;;;;;5083463;28;20043;-42
2022/04/05 04:20:12;;;;;;;4.45;2.58;;;;;;;;;;5081046;28;20076;-42
2022/04/05 04:22:37;;;;;;;6.40;2.95;;;;;;;;;;5083658;28;20105;-45
2022/04/05 04:25:03;;;;;;;21.65;3.80;;;;;;;;;;5086427;28;20427;-43
2022/04/05 04:27:28;;;;;;;3.35;1.98;;;;;;;;;;5086295;28;20044;-42
2022/04/05 04:29:53;;;;;;;9.10;2.40;;;;;;;;;;5082129;28;20169;-44
2022/04/05 04:32:18;;;;;;;3.53;2.08;;;;;;;;;;5084306;28;20117;-40
2022/04/05 04:34:44;;;;;;;3.70;2.13;;;;;;;;;;5085031;28;20040;-45
2022/04/05 04:37:09;;;;;;;3.65;1.70;;;;;;;;;;5082555;28;20052;-46
2022/04/05 04:39:35;;;;;;;6.47;2.97;;;;;;;;;;5081783;28;20098;-43
2022/04/05 04:42:01;;;;;;;5.60;1.95;;;;;;;;;;5082214;28;20051;-41
2022/04/05 04:44:26;;;;;;;2.90;1.58;;;;;;;;;;5082137;28;20040;-40
2022/04/05 04:46:52;;;;;;;6.85;2.88;;;;;;;;;;5083110;28;20156;-47
2022/04/05 04:49:17;;;;;;;7.18;2.67;;;;;;;;;;5078669;28;20067;-47
2022/04/05 04:51:43;;;;;;;14.68;8.85;;;;;;;;;;5079491;28;20043;-47
2022/04/05 04:54:08;;;;;;;5.20;2.72;;;;;;;;;;5077379;28;20421;-42
2022/04/05 04:56:33;;;;;;;6.75;3.85;;;;;;;;;;5083478;28;20093;-45
2022/04/05 04:58:59;;;;;;;3.53;2.45;;;;;;;;;;5088946;28;20115;-47
2022/04/05 05:01:24;;;;;;;2.97;1.85;;;;;;;;;;5088611;28;20040;-43
2022/04/05 05:03:51;;;;;;;4.68;2.55;;;;;;;;;;5086143;28;20047;-46
2022/04/05 05:06:16;;;;;;;12.68;3.45;;;;;;;;;;5086252;28;20072;-44
2022/04/05 05:08:41;;;;;;;7.38;2.72;;;;;;;;;;5087631;28;20079;-42
2022/04/05 05:11:07;;;;;;;5.90;2.90;;;;;;;;;;5086277;28;20094;-47
2022/04/05 05:13:32;;;;;;;5.10;2.75;;;;;;;;;;5083650;28;20036;-42
2022/04/05 05:15:58;;;;;;;11.13;3.65;;;;;;;;;;5088084;28;20047;-44
2022/04/05 05:18:24;;;;;;;6.75;3.08;;;;;;;;;;5085920;28;20464;-44
2022/04/05 05:20:49;;;;;;;11.32;5.97;;;;;;;;;;5084015;28;20492;-47
2022/04/05 05:23:14;;;;;;;14.15;6.00;;;;;;;;;;5084608;28;20044;-44
2022/04/05 05:25:40;;;;;;;12.50;5.78;;;;;;;;;;5087972;28;20135;-43
2022/04/05 05:28:05;;;;;;;20.75;7.32;;;;;;;;;;5087249;28;20044;-42
2022/04/05 05:30:31;;;;;;;17.27;7.03;;;;;;;;;;5081363;28;20150;-45
2022/04/05 05:32:56;;;;;;;5.57;3.13;;;;;;;;;;5085982;28;20087;-45
2022/04/05 05:35:22;;;;;;;13.80;4.15;;;;;;;;;;5083657;28;20048;-43
2022/04/05 05:37:48;;;;;;;8.98;4.82;;;;;;;;;;5086842;28;20384;-43
2022/04/05 05:40:14;;;;;;;17.30;11.68;;;;;;;;;;5080111;28;20503;-46
2022/04/05 05:42:52;;;;;;;8.43;6.43;;;;;;;;;;5084978;28;20105;-48
2022/04/05 05:45:18;;;;;;;7.05;3.90;;;;;;;;;;5084018;28;20144;-45
2022/04/05 05:47:43;;;;;;;9.80;4.30;;;;;;;;;;5086125;28;20593;-46
2022/04/05 05:50:12;;;;;;;7.85;2.03;;;;;;;;;;5083063;28;20471;-45
2022/04/05 05:52:37;;;;;;;22.90;2.78;;;;;;;;;;5088583;28;20153;-47
2022/04/05 05:55:03;;;;;;;3.67;2.38;;;;;;;;;;5087499;28;20494;-46
2022/04/05 05:57:29;;;;;;;2.30;1.90;;;;;;;;;;5078068;28;20422;-45
2022/04/05 05:59:54;;;;;;;8.13;1.92;;;;;;;;;;5086891;28;20101;-45
2022/04/05 06:02:19;;;;;;;4.05;1.38;;;;;;;;;;5086086;28;20043;-44
2022/04/05 06:04:44;;;;;;;9.95;2.58;;;;;;;;;;5083527;28;20814;-48
2022/04/05 06:07:10;;;;;;;1.90;1.20;;;;;;;;;;5083488;28;20097;-44
2022/04/05 06:09:35;;;;;;;8.43;2.47;;;;;;;;;;5081799;28;20066;-47
2022/04/05 06:12:01;;;;;;;4.63;3.60;;;;;;;;;;5084651;28;20079;-48
2022/04/05 06:14:26;;;;;;;3.13;1.52;;;;;;;;;;5083373;28;20035;-44
2022/04/05 06:16:51;;;;;;;3.95;1.73;;;;;;;;;;5085461;28;20628;-49
2022/04/05 06:19:16;;;;;;;2.08;1.65;;;;;;;;;;5086686;28;20757;-47
2022/04/05 06:21:42;;;;;;;22.63;3.75;;;;;;;;;;5086968;28;20564;-46
2022/04/05 06:24:07;;;;;;;5.93;4.30;;;;;;;;;;5085388;28;20092;-47
2022/04/05 06:26:32;;;;;;;5.47;2.85;;;;;;;;;;5083690;28;20051;-46
2022/04/05 06:28:58;;;;;;;5.45;2.78;;;;;;;;;;5085355;28;20039;-46
2022/04/05 06:31:23;;;;;;;4.13;1.88;;;;;;;;;;5084653;28;20507;-45
2022/04/05 06:33:48;;;;;;;5.55;1.45;;;;;;;;;;5085801;28;20039;-44
2022/04/05 06:36:14;;;;;;;6.95;2.15;;;;;;;;;;5083395;28;20028;-47
2022/04/05 06:38:39;;;;;;;8.18;1.85;;;;;;;;;;5086176;28;20050;-50
2022/04/05 06:41:04;;;;;;;5.32;2.63;;;;;;;;;;5081353;28;20163;-45
2022/04/05 06:43:30;;;;;;;6.15;2.90;;;;;;;;;;5085370;28;20487;-45
2022/04/05 06:45:55;;;;;;;2.45;1.55;;;;;;;;;;5086215;28;20043;-45
2022/04/05 06:48:20;;;;;;;8.00;5.25;;;;;;;;;;5083179;28;20590;-47
2022/04/05 06:50:47;;;;;;;16.77;5.07;;;;;;;;;;5086198;28;20900;-46
2022/04/05 06:53:12;;;;;;;12.07;5.95;;;;;;;;;;5085333;28;20040;-46
2022/04/05 06:55:38;;;;;;;7.93;4.85;;;;;;;;;;5086855;28;20063;-45
2022/04/05 06:58:03;;;;;;;11.25;5.82;;;;;;;;;;5081650;28;20052;-45
2022/04/05 07:00:29;;;;;;;6.57;3.78;;;;;;;;;;5086210;28;20316;-46
2022/04/05 07:02:55;;;;;;;34.28;5.68;;;;;;;;;;5086191;28;20046;-46
2022/04/05 07:05:21;;;;;;;7.85;4.85;;;;;;;;;;5087904;28;20036;-46
2022/04/05 07:07:46;;;;;;;7.10;4.18;;;;;;;;;;5085592;28;20062;-51
2022/04/05 07:10:14;;;;;;;10.95;5.78;;;;;;;;;;5085961;28;20063;-46
2022/04/05 07:12:40;;;;;;;5.43;3.95;;;;;;;;;;5084355;28;20068;-47
2022/04/05 07:15:06;;;;;;;7.10;4.55;;;;;;;;;;5080818;28;20516;-46
2022/04/05 07:17:31;;;;;;;18.55;6.32;;;;;;;;;;5085979;28;20052;-47
2022/04/05 07:19:56;;;;;;;40.63;17.20;;;;;;;;;;5085969;28;20036;-45
2022/04/05 07:22:22;;;;;;;14.35;7.65;;;;;;;;;;5085365;28;20048;-47
2022/04/05 07:24:47;;;;;;;9.40;4.60;;;;;;;;;;5080174;28;20040;-47
2022/04/05 07:27:13;;;;;;;14.63;10.13;;;;;;;;;;5084431;28;20138;-49
2022/04/05 07:29:39;;;;;;;18.77;11.27;;;;;;;;;;5084717;28;20054;-43
2022/04/05 07:32:04;;;;;;;15.73;7.07;;;;;;;;;;5083904;28;20118;-44
2022/04/05 07:34:30;;;;;;;5.78;4.03;;;;;;;;;;5079185;28;20410;-45
2022/04/05 07:36:55;;;;;;;7.85;2.05;;;;;;;;;;5079922;28;20055;-50
2022/04/05 07:39:22;;;;;;;4.18;2.83;;;;;;;;;;5083872;28;20055;-44
2022/04/05 07:41:48;;;;;;;6.13;2.97;;;;;;;;;;5082362;28;20067;-47
2022/04/05 07:44:13;;;;;;;5.72;2.70;;;;;;;;;;5084435;28;20129;-46
2022/04/05 07:46:38;;;;;;;13.32;3.33;;;;;;;;;;5081017;28;20390;-45
2022/04/05 07:49:04;;;;;;;12.95;3.25;;;;;;;;;;5082635;28;20036;-49
2022/04/05 07:51:29;;;;;;;4.85;2.88;;;;;;;;;;5084523;28;20071;-47
2022/04/05 07:53:55;;;;;;;7.15;2.95;;;;;;;;;;5086813;28;20042;-47
2022/04/05 07:56:20;;;;;;;6.05;1.83;;;;;;;;;;5075964;28;20060;-44
2022/04/05 07:58:47;;;;;;;4.50;2.38;;;;;;;;;;5081806;28;20084;-48
2022/04/05 08:01:12;;;;;;;3.83;2.95;;;;;;;;;;5085046;28;20046;-47
2022/04/05 08:03:38;;;;;;;5.50;2.50;;;;;;;;;;5083979;28;20127;-44
2022/04/05 08:06:03;;;;;;;4.65;2.33;;;;;;;;;;5085682;28;20093;-44
2022/04/05 08:08:29;;;;;;;16.88;1.90;;;;;;;;;;5084609;28;20463;-46
2022/04/05 08:10:55;;;;;;;3.47;1.50;;;;;;;;;;5080243;28;20701;-47
2022/04/05 08:13:20;;;;;;;6.03;2.22;;;;;;;;;;5077429;28;20040;-48
2022/04/05 08:15:46;;;;;;;4.65;2.20;;;;;;;;;;5085293;28;20116;-46
2022/04/05 08:18:12;;;;;;;33.60;4.78;;;;;;;;;;5079317;28;20113;-45
2022/04/05 08:20:39;;;;;;;2.08;1.55;;;;;;;;;;5084095;28;20594;-44
2022/04/05 08:23:05;;;;;;;5.05;1.27;;;;;;;;;;5081979;28;20064;-45
2022/04/05 08:25:30;;;;;;;7.47;1.92;;;;;;;;;;5081086;28;20044;-47
2022/04/05 08:27:57;;;;;;;3.55;1.77;;;;;;;;;;5084618;28;20050;-45
2022/04/05 08:30:22;;;;;;;9.75;1.63;;;;;;;;;;5086972;28;20060;-44
2022/04/05 08:32:48;;;;;;;7.40;1.60;;;;;;;;;;5085310;28;20510;-47
2022/04/05 08:35:15;;;;;;;48.40;6.40;;;;;;;;;;5088279;28;20206;-46
2022/04/05 08:37:41;;;;;;;4.78;1.63;;;;;;;;;;5081076;28;20717;-46
2022/04/05 08:40:07;;;;;;;6.70;2.80;;;;;;;;;;5083251;28;20090;-45
2022/04/05 08:42:41;;;;;;;3.08;1.75;;;;;;;;;;5088764;28;20044;-47
2022/04/05 08:45:10;;;;;;;3.63;1.45;;;;;;;;;;5083135;28;20147;-43
2022/04/05 08:47:35;;;;;;;6.18;2.08;;;;;;;;;;5086752;28;20043;-44
2022/04/05 08:50:04;;;;;;;3.25;1.50;;;;;;;;;;5086412;28;20040;-46
2022/04/05 08:52:29;;;;;;;2.50;1.17;;;;;;;;;;5078083;28;20063;-45
2022/04/05 08:54:55;;;;;;;5.10;1.42;;;;;;;;;;5080974;28;20706;-45
2022/04/05 08:57:21;;;;;;;3.08;1.38;;;;;;;;;;5086533;28;20056;-45
2022/04/05 08:59:46;;;;;;;2.25;1.20;;;;;;;;;;5084831;28;20050;-47
2022/04/05 09:02:13;;;;;;;1.92;1.20;;;;;;;;;;5088859;28;20692;-45
2022/04/05 09:04:39;;;;;;;5.57;2.15;;;;;;;;;;5086219;28;20099;-45
2022/04/05 09:07:23;;;;;;;32.05;4.20;;;;;;;;;;5081660;28;20483;-43
2022/04/05 09:10:07;;;;;;;4.82;3.20;;;;;;;;;;5087434;28;20169;-49
2022/04/05 09:12:38;;;;;;;5.75;2.80;;;;;;;;;;5086761;28;20094;-44
2022/04/05 09:15:21;;;;;;;2.35;0.90;;;;;;;;;;5086367;28;20076;-46
2022/04/05 09:17:48;;;;;;;3.72;1.00;;;;;;;;;;5082073;28;20714;-50
2022/04/05 09:20:15;;;;;;;1.27;0.65;;;;;;;;;;5084873;28;20135;-46
2022/04/05 09:22:40;;;;;;;1.58;0.70;;;;;;;;;;5087638;28;20059;-50
2022/04/05 09:25:06;;;;;;;2.25;1.15;;;;;;;;;;5086710;28;20033;-50
2022/04/05 09:27:47;;;;;;;3.22;1.58;;;;;;;;;;5087314;28;20047;-49
2022/04/05 09:30:14;;;;;;;3.45;1.42;;;;;;;;;;5085837;28;20123;-45
2022/04/05 09:32:47;;;;;;;3.08;0.93;;;;;;;;;;5084724;28;20044;-49
2022/04/05 09:35:12;;;;;;;4.70;0.93;;;;;;;;;;5083984;28;20060;-47
2022/04/05 09:37:40;;;;;;;13.52;1.88;;;;;;;;;;5079283;28;20044;-51
2022/04/05 09:40:24;;;;;;;4.22;1.23;;;;;;;;;;5084083;28;20530;-46
2022/04/05 09:43:00;;;;;;;3.30;1.92;;;;;;;;;;5084635;28;20025;-49
2022/04/05 09:45:46;;;;;;;2.65;1.63;;;;;;;;;;5086375;28;20044;-39
2022/04/05 09:48:11;;;;;;;13.02;1.95;;;;;;;;;;5067397;28;20052;-41
2022/04/05 09:50:55;;;;;;;2.88;1.50;;;;;;;;;;5077694;28;20403;-40
2022/04/05 09:53:20;;;;;;;3.50;1.95;;;;;;;;;;5084276;28;20043;-44
2022/04/05 09:55:46;;;;;;;5.00;1.05;;;;;;;;;;5082237;28;20096;-41
2022/04/05 09:58:11;;;;;;;1.35;0.82;;;;;;;;;;5084565;28;20119;-47
2022/04/05 10:00:36;;;;;;;1.85;1.05;;;;;;;;;;5083179;28;20048;-44
2022/04/05 10:03:08;;;;;;;3.95;1.00;;;;;;;;;;5084754;28;20115;-45
2022/04/05 10:05:34;;;;;;;9.68;2.80;;;;;;;;;;5084409;28;20082;-45
2022/04/05 10:07:59;;;;;;;3.80;1.85;;;;;;;;;;5087793;28;20550;-46
2022/04/05 10:10:25;;;;;;;2.55;1.83;;;;;;;;;;5084202;28;20064;-44
2022/04/05 10:12:51;;;;;;;4.72;1.60;;;;;;;;;;5083677;28;20169;-47
2022/04/05 10:15:16;;;;;;;2.85;1.02;;;;;;;;;;5084085;28;20131;-43
2022/04/05 10:17:45;;;;;;;4.18;1.75;;;;;;;;;;5083972;28;20528;-46
2022/04/05 10:20:11;;;;;;;3.85;1.17;;;;;;;;;;5083966;28;20063;-46
2022/04/05 10:22:38;;;;;;;3.20;1.27;;;;;;;;;;5084461;28;20074;-43
2022/04/05 10:25:03;;;;;;;3.40;1.83;;;;;;;;;;5083142;28;20044;-44
2022/04/05 10:27:29;;;;;;;11.13;1.60;;;;;;;;;;5085486;28;20197;-45
2022/04/05 10:30:00;;;;;;;2.22;0.93;;;;;;;;;;5084213;28;20534;-46
2022/04/05 10:32:35;;;;;;;1.55;0.88;;;;;;;;;;5078766;28;20044;-43
2022/04/05 10:35:06;;;;;;;2.88;1.15;;;;;;;;;;5083832;28;20055;-44
2022/04/05 10:37:35;;;;;;;4.88;1.20;;;;;;;;;;5085773;28;20583;-45
2022/04/05 10:40:00;;;;;;;2.50;1.02;;;;;;;;;;5084255;28;20052;-48
2022/04/05 10:42:33;;;;;;;1.90;1.38;;;;;;;;;;5080789;28;20036;-44
2022/04/05 10:45:10;;;;;;;3.50;1.90;;;;;;;;;;5083846;28;20079;-48
2022/04/05 10:47:54;;;;;;;5.65;2.45;;;;;;;;;;5087156;28;20044;-45
2022/04/05 10:50:23;;;;;;;8.18;2.45;;;;;;;;;;5083085;28;20051;-48
2022/04/05 10:53:08;;;;;;;3.15;1.38;;;;;;;;;;5083646;28;20488;-43
2022/04/05 10:55:54;;;;;;;3.60;0.90;;;;;;;;;;5085187;28;20094;-46
2022/04/05 10:58:19;;;;;;;3.33;1.30;;;;;;;;;;5081294;28;20056;-44
2022/04/05 11:00:46;;;;;;;2.45;0.73;;;;;;;;;;5083472;28;20036;-46
2022/04/05 11:03:12;;;;;;;3.67;1.35;;;;;;;;;;5083560;28;20044;-49
2022/04/05 11:05:38;;;;;;;1.52;0.88;;;;;;;;;;5083712;28;20119;-47
2022/04/05 11:08:10;;;;;;;1.92;0.73;;;;;;;;;;5084078;28;20155;-49
2022/04/05 11:10:36;;;;;;;4.07;2.50;;;;;;;;;;5085644;28;20044;-43
2022/04/05 11:13:04;;;;;;;2.38;1.23;;;;;;;;;;5085469;28;20695;-44
2022/04/05 11:15:46;;;;;;;5.03;1.48;;;;;;;;;;5085881;28;20691;-43
2022/04/05 11:18:12;;;;;;;0.80;0.40;;;;;;;;;;5086215;28;20036;-51
2022/04/05 11:20:38;;;;;;;4.18;0.70;;;;;;;;;;5082834;28;20110;-44
2022/04/05 11:23:04;;;;;;;4.32;1.00;;;;;;;;;;5083561;28;20047;-45
2022/04/05 11:25:30;;;;;;;2.78;0.77;;;;;;;;;;5083452;28;20138;-49
2022/04/05 11:28:08;;;;;;;2.17;1.00;;;;;;;;;;5085788;28;20070;-46
2022/04/05 11:30:37;;;;;;;0.80;0.43;;;;;;;;;;5082760;28;20082;-44
2022/04/05 11:33:09;;;;;;;2.90;1.40;;;;;;;;;;5082824;28;20601;-50
2022/04/05 11:35:35;;;;;;;2.47;1.35;;;;;;;;;;5083289;28;20040;-44
2022/04/05 11:38:00;;;;;;;2.58;0.90;;;;;;;;;;5085429;28;20067;-44
2022/04/05 11:40:25;;;;;;;13.82;3.17;;;;;;;;;;5084072;28;20075;-45
2022/04/05 11:42:51;;;;;;;3.03;1.45;;;;;;;;;;5083784;28;20047;-44
2022/04/05 11:45:17;;;;;;;5.05;1.10;;;;;;;;;;5086367;28;20048;-45
2022/04/05 11:47:50;;;;;;;3.10;1.23;;;;;;;;;;5080852;28;20484;-47
2022/04/05 11:50:17;;;;;;;3.25;1.13;;;;;;;;;;5080394;28;20407;-43
2022/04/05 11:52:43;;;;;;;2.17;1.08;;;;;;;;;;5079925;28;20066;-47
2022/04/05 11:58:02;;;;;;;3.30;1.00;;;;;;;;;;5084047;28;20490;-45
2022/04/05 12:00:29;;;;;;;1.83;0.98;;;;;;;;;;5078893;28;20044;-43
2022/04/05 12:03:05;;;;;;;1.05;0.93;;;;;;;;;;5083891;28;20091;-44
2022/04/05 12:05:46;;;;;;;1.90;1.45;;;;;;;;;;5082518;28;20067;-47
2022/04/05 12:08:12;;;;;;;5.50;1.45;;;;;;;;;;5085459;28;20044;-47
2022/04/05 12:10:38;;;;;;;2.47;1.15;;;;;;;;;;5085837;28;20058;-44
2022/04/05 12:13:03;;;;;;;3.80;1.00;;;;;;;;;;5079346;28;20048;-47
2022/04/05 12:15:29;;;;;;;7.25;1.58;;;;;;;;;;5086234;28;20074;-47
2022/04/05 12:18:12;;;;;;;1.27;1.00;;;;;;;;;;5081914;28;20044;-44
2022/04/05 12:20:38;;;;;;;10.43;1.92;;;;;;;;;;5084761;28;20044;-46
2022/04/05 12:23:03;;;;;;;5.18;1.38;;;;;;;;;;5083265;28;20096;-46
2022/04/05 12:25:28;;;;;;;2.80;1.08;;;;;;;;;;5081778;28;20154;-46
2022/04/05 12:27:56;;;;;;;2.88;1.33;;;;;;;;;;5080444;28;20076;-46
2022/04/05 12:30:28;;;;;;;2.72;1.20;;;;;;;;;;5079432;28;20047;-45
2022/04/05 12:32:53;;;;;;;4.38;2.00;;;;;;;;;;5080032;28;20040;-45
2022/04/05 12:35:19;;;;;;;3.35;0.80;;;;;;;;;;5080361;28;20601;-46
2022/04/05 12:37:44;;;;;;;2.67;1.13;;;;;;;;;;5080325;28;20126;-48
2022/04/05 12:40:23;;;;;;;2.25;1.20;;;;;;;;;;5080610;28;20051;-48
2022/04/05 12:42:48;;;;;;;2.47;1.13;;;;;;;;;;5078915;28;20560;-48
2022/04/05 12:45:13;;;;;;;3.53;1.15;;;;;;;;;;5083193;28;20048;-48
2022/04/05 12:47:44;;;;;;;3.10;1.42;;;;;;;;;;5079278;28;20057;-45
2022/04/05 12:50:09;;;;;;;2.20;1.33;;;;;;;;;;5078259;28;20656;-45
2022/04/05 12:52:35;;;;;;;3.47;1.55;;;;;;;;;;5080621;28;20075;-43
2022/04/05 12:55:00;;;;;;;1.70;0.77;;;;;;;;;;5081652;28;20032;-46
2022/04/05 12:57:27;;;;;;;2.22;1.33;;;;;;;;;;5078438;28;20052;-44
2022/04/05 13:00:10;;;;;;;1.65;0.90;;;;;;;;;;5082952;28;20544;-49
2022/04/05 13:02:37;;;;;;;4.90;1.88;;;;;;;;;;5083828;28;20078;-44
2022/04/05 13:07:56;;;;;;;1.45;1.25;;;;;;;;;;5080785;28;20110;-39
2022/04/05 13:10:50;;;;;;;1.42;1.05;;;;;;;;;;5083564;28;20064;-40
2022/04/05 13:13:23;;;;;;;2.90;1.77;;;;;;;;;;5064318;28;20040;-43
2022/04/05 13:16:01;;;;;;;2.00;1.35;;;;;;;;;;5086673;28;20070;-44
2022/04/05 13:18:37;;;;;;;1.65;1.10;;;;;;;;;;5082666;28;20389;-44
2022/04/05 13:21:03;;;;;;;2.85;1.90;;;;;;;;;;5085875;28;20064;-45
2022/04/05 13:23:31;;;;;;;1.13;1.02;;;;;;;;;;5084428;28;20047;-47
2022/04/05 13:25:57;;;;;;;1.52;0.70;;;;;;;;;;5084888;28;20275;-45
2022/04/05 13:28:30;;;;;;;3.22;1.75;;;;;;;;;;5082804;28;20467;-44
2022/04/05 13:30:55;;;;;;;1.92;1.05;;;;;;;;;;5084604;28;20039;-45
2022/04/05 13:33:21;;;;;;;2.03;1.23;;;;;;;;;;5086720;28;20043;-49
2022/04/05 13:35:46;;;;;;;17.42;2.00;;;;;;;;;;5086429;28;20086;-41
2022/04/05 13:38:11;;;;;;;1.08;0.98;;;;;;;;;;5086580;28;20052;-45
2022/04/05 13:40:37;;;;;;;1.63;0.80;;;;;;;;;;5085927;28;20490;-52
2022/04/05 13:43:02;;;;;;;17.75;2.33;;;;;;;;;;5083301;28;20036;-50
2022/04/05 13:45:27;;;;;;;4.40;1.25;;;;;;;;;;5086159;28;20061;-47
2022/04/05 13:47:53;;;;;;;1.55;0.68;;;;;;;;;;5086552;28;20051;-42
2022/04/05 13:50:22;;;;;;;1.70;1.05;;;;;;;;;;5085921;28;20651;-47
2022/04/05 13:52:47;;;;;;;1.88;0.80;;;;;;;;;;5084961;28;20051;-47
2022/04/05 13:55:13;;;;;;;1.48;1.00;;;;;;;;;;5084458;28;20044;-44
2022/04/05 13:57:39;;;;;;;5.78;1.20;;;;;;;;;;5086689;28;20043;-44
2022/04/05 14:00:05;;;;;;;5.15;1.25;;;;;;;;;;5084320;28;20044;-42
2022/04/05 14:02:30;;;;;;;4.03;1.42;;;;;;;;;;5084946;28;20036;-45
2022/04/05 14:04:56;;;;;;;2.97;0.90;;;;;;;;;;5086721;28;20544;-48
2022/04/05 14:07:21;;;;;;;2.30;1.15;;;;;;;;;;5087719;28;20089;-45
2022/04/05 14:09:47;;;;;;;2.13;1.38;;;;;;;;;;5086136;28;20032;-45
2022/04/05 14:12:12;;;;;;;3.05;1.50;;;;;;;;;;5082034;28;20250;-43
2022/04/05 14:14:38;;;;;;;1.95;1.23;;;;;;;;;;5086434;28;20047;-46
2022/04/05 14:17:03;;;;;;;1.45;0.77;;;;;;;;;;5082706;28;20122;-41
2022/04/05 14:19:29;;;;;;;2.67;1.27;;;;;;;;;;5084197;28;20040;-43
2022/04/05 14:21:54;;;;;;;2.20;0.90;;;;;;;;;;5085653;28;20040;-44
2022/04/05 14:24:20;;;;;;;2.80;1.40;;;;;;;;;;5083905;28;20070;-47
2022/04/05 14:26:46;;;;;;;5.18;0.80;;;;;;;;;;5085063;28;20040;-39
2022/04/05 14:29:11;;;;;;;1.50;0.98;;;;;;;;;;5086180;28;20033;-50
2022/04/05 14:31:37;;;;;;;1.67;0.98;;;;;;;;;;5084903;28;20528;-46
2022/04/05 14:34:03;;;;;;;10.98;1.73;;;;;;;;;;5086378;28;20032;-47
2022/04/05 14:36:28;;;;;;;3.42;0.98;;;;;;;;;;5084222;28;20036;-44
2022/04/05 14:38:53;;;;;;;1.27;0.52;;;;;;;;;;5083663;28;20036;-42
2022/04/05 14:41:20;;;;;;;2.05;1.45;;;;;;;;;;5080806;28;20028;-41
2022/04/05 14:43:46;;;;;;;4.22;1.73;;;;;;;;;;5085199;28;20129;-46